| time (UTC) | temp C | wind direction | speed KPH | gust KPH | rain 1hr cm | rain 24hr cm | rain mn cm | humidity % | barometer mb |
| 20260507060508 | 7 | 216 | 0.0 | 1.6 | 0.00 | 0.00 | 0.00 | 88 | 1012.2 |
| 20260507055955 | 7 | 242 | 1.6 | 1.6 | 0.00 | 0.00 | 0.00 | 88 | 1012.0 |
| 20260507055449 | 7 | 227 | 0.0 | 1.6 | 0.00 | 0.00 | 0.00 | 88 | 1012.0 |
| 20260507054935 | 7 | 238 | 1.6 | 1.6 | 0.00 | 0.00 | 0.00 | 89 | 1012.1 |
| 20260507054425 | 7 | 252 | 1.6 | 1.6 | 0.00 | 0.00 | 0.00 | 89 | 1011.9 |
| 20260507053408 | 7 | 220 | 0.0 | 1.6 | 0.00 | 0.00 | 0.00 | 90 | 1011.8 |
| 20260507051404 | 7 | 244 | 3.2 | 3.2 | 0.00 | 0.00 | 0.00 | 89 | 1011.3 |
| 20260507050853 | 7 | 220 | 0.0 | 0.0 | 0.00 | 0.00 | 0.00 | 89 | 1011.6 |
| 20260507045246 | 7 | 194 | 1.6 | 1.6 | 0.00 | 0.00 | 0.00 | 89 | 1011.6 |
| 20260507044735 | 7 | 245 | 3.2 | 4.8 | 0.00 | 0.00 | 0.00 | 89 | 1011.5 |
| 20260507043243 | 7 | 233 | 0.0 | 1.6 | 0.00 | 0.00 | 0.00 | 89 | 1011.4 |
| 20260507042223 | 7 | 227 | 0.0 | 1.6 | 0.00 | 0.00 | 0.00 | 89 | 1011.3 |
| 20260507040653 | 7 | 227 | 0.0 | 3.2 | 0.00 | 0.00 | 0.00 | 89 | 1011.3 |
| 20260507035558 | 7 | 250 | 1.6 | 4.8 | 0.00 | 0.00 | 0.00 | 90 | 1011.0 |
| 20260507035045 | 7 | 227 | 0.0 | 3.2 | 0.00 | 0.00 | 0.00 | 90 | 1010.7 |
| 20260507034538 | 7 | 197 | 0.0 | 1.6 | 0.00 | 0.00 | 0.00 | 91 | 1010.9 |
| 20260507031945 | 7 | 247 | 3.2 | 6.4 | 0.00 | 0.00 | 0.00 | 91 | 1010.6 |
| 20260507031003 | 7 | 241 | 1.6 | 1.6 | 0.00 | 0.00 | 0.00 | 91 | 1010.6 |
| 20260507024845 | 7 | 209 | 0.0 | 1.6 | 0.00 | 0.00 | 0.00 | 92 | 1010.6 |
| 20260507024335 | 7 | 218 | 0.0 | 1.6 | 0.00 | 0.00 | 0.00 | 92 | 1010.4 |
| 20260507023315 | 7 | 192 | 1.6 | 3.2 | 0.00 | 0.00 | 0.00 | 92 | 1010.5 |
| 20260507022805 | 7 | 226 | 3.2 | 3.2 | 0.00 | 0.00 | 0.00 | 92 | 1010.4 |
| 20260507021745 | 7 | 233 | 0.0 | 3.2 | 0.00 | 0.00 | 0.00 | 92 | 1010.4 |
| 20260507021235 | 7 | 230 | 1.6 | 3.2 | 0.00 | 0.00 | 0.00 | 92 | 1010.3 |
| 20260507020215 | 7 | 228 | 1.6 | 4.8 | 0.00 | 0.00 | 0.00 | 92 | 1010.5 |
| 20260507015705 | 7 | 226 | 0.0 | 1.6 | 0.00 | 0.00 | 0.00 | 92 | 1010.3 |
| 20260507015155 | 7 | 226 | 0.0 | 0.0 | 0.00 | 0.00 | 0.00 | 92 | 1010.6 |
| 20260507014645 | 7 | 233 | 0.0 | 1.6 | 0.00 | 0.00 | 0.00 | 92 | 1010.4 |
| 20260507014135 | 7 | 229 | 0.0 | 1.6 | 0.00 | 0.00 | 0.00 | 92 | 1010.2 |
| 20260507013153 | 7 | 231 | 0.0 | 0.0 | 0.00 | 0.00 | 0.00 | 92 | 1010.5 |
| 20260507012604 | 7 | 223 | 0.0 | 0.0 | 0.00 | 0.00 | 0.00 | 92 | 1010.3 |
| 20260507012054 | 7 | 241 | 1.6 | 6.4 | 0.00 | 0.00 | 0.00 | 92 | 1010.2 |
| 20260507011034 | 7 | 230 | 0.0 | 6.4 | 0.00 | 0.00 | 0.00 | 92 | 1010.0 |
| 20260507010015 | 7 | 243 | 1.6 | 3.2 | 0.00 | 0.00 | 0.00 | 92 | 1009.9 |
| 20260507005504 | 7 | 225 | 0.0 | 1.6 | 0.00 | 0.00 | 0.00 | 92 | 1010.1 |
| 20260507005033 | 7 | 240 | 0.0 | 1.6 | 0.00 | 0.00 | 0.00 | 92 | 1009.9 |
| 20260507003934 | 6 | 238 | 1.6 | 4.8 | 0.00 | 0.00 | 0.00 | 92 | 1009.8 |
| 20260507003424 | 6 | 305 | 1.6 | 3.2 | 0.00 | 0.00 | 0.00 | 92 | 1009.5 |
| 20260507002404 | 7 | 242 | 1.6 | 3.2 | 0.00 | 0.00 | 0.00 | 92 | 1009.8 |
| 20260507001344 | 7 | 224 | 0.0 | 1.6 | 0.00 | 0.00 | 0.00 | 92 | 1009.8 |
| 20260507000834 | 7 | 263 | 1.6 | 4.8 | 0.00 | 0.00 | 0.00 | 92 | 1009.7 |
| 20260506235306 | 7 | 223 | 1.6 | 1.6 | 0.00 | 0.00 | 0.00 | 91 | 1009.9 |
| 20260506234323 | 7 | 218 | 1.6 | 1.6 | 0.00 | 0.00 | 0.00 | 92 | 1009.8 |
| 20260506232204 | 7 | 242 | 1.6 | 3.2 | 0.00 | 0.00 | 0.00 | 92 | 1009.9 |
| 20260506231147 | 7 | 233 | 0.0 | 1.6 | 0.00 | 0.00 | 0.00 | 92 | 1009.8 |
| 20260506230124 | 7 | 294 | 6.4 | 6.4 | 0.00 | 0.00 | 0.00 | 93 | 1009.7 |
| 20260506225104 | 7 | 263 | 3.2 | 6.4 | 0.00 | 0.00 | 0.00 | 94 | 1009.5 |
| 20260506223534 | 8 | 234 | 1.6 | 3.2 | 0.00 | 0.00 | 0.00 | 93 | 1009.4 |
| 20260506223024 | 8 | 249 | 1.6 | 3.2 | 0.00 | 0.00 | 0.00 | 93 | 1009.4 |
| 20260506221532 | 8 | 310 | 3.2 | 4.8 | 0.00 | 0.00 | 0.00 | 92 | 1009.4 |
| 20260506215453 | 9 | 229 | 0.0 | 6.4 | 0.00 | 0.00 | 2.87 | 93 | 1009.3 |
| 20260506214945 | 9 | 241 | 0.0 | 3.2 | 0.00 | 0.00 | 2.87 | 93 | 1009.1 |
| 20260506214355 | 9 | 237 | 1.6 | 6.4 | 0.00 | 0.00 | 2.87 | 93 | 1009.1 |
| 20260506213844 | 9 | 214 | 0.0 | 3.2 | 0.00 | 0.00 | 2.87 | 94 | 1009.1 |
| 20260506212314 | 9 | 213 | 0.0 | 1.6 | 0.00 | 0.00 | 2.87 | 95 | 1008.8 |
| 20260506210234 | 10 | 272 | 1.6 | 4.8 | 0.00 | 0.00 | 2.87 | 94 | 1008.8 |
| 20260506205214 | 9 | 236 | 1.6 | 4.8 | 0.00 | 0.00 | 2.87 | 94 | 1008.6 |
| 20260506204707 | 10 | 243 | 1.6 | 3.2 | 0.00 | 0.00 | 2.87 | 95 | 1008.5 |
| 20260506204232 | 10 | 213 | 0.0 | 1.6 | 0.00 | 0.00 | 2.87 | 95 | 1008.8 |
| 20260506203134 | 10 | 240 | 1.6 | 3.2 | 0.00 | 0.00 | 2.87 | 95 | 1008.7 |
| 20260506202114 | 10 | 214 | 1.6 | 3.2 | 0.00 | 0.00 | 2.87 | 94 | 1008.8 |
| 20260506201642 | 10 | 238 | 0.0 | 3.2 | 0.00 | 0.00 | 2.87 | 94 | 1008.7 |
| 20260506201217 | 10 | 244 | 0.0 | 1.6 | 0.00 | 0.00 | 2.87 | 94 | 1008.6 |
| 20260506200034 | 10 | 237 | 0.0 | 3.2 | 0.00 | 0.00 | 2.87 | 95 | 1008.6 |
| 20260506193954 | 10 | 234 | 0.0 | 1.6 | 0.00 | 0.00 | 2.87 | 95 | 1008.5 |
| 20260506193522 | 10 | 231 | 0.0 | 0.0 | 0.00 | 0.00 | 2.87 | 95 | 1008.4 |
| 20260506191404 | 10 | 229 | 0.0 | 0.0 | 0.00 | 0.00 | 2.87 | 95 | 1008.3 |
| 20260506190932 | 10 | 228 | 0.0 | 0.0 | 0.00 | 0.00 | 2.87 | 95 | 1008.4 |
| 20260506190344 | 10 | 250 | 1.6 | 1.6 | 0.00 | 0.00 | 2.87 | 95 | 1008.3 |
| 20260506185837 | 10 | 245 | 0.0 | 1.6 | 0.00 | 0.00 | 2.87 | 95 | 1008.0 |
| 20260506185324 | 10 | 230 | 0.0 | 1.6 | 0.00 | 0.00 | 2.87 | 95 | 1007.5 |
| 20260506184304 | 10 | 235 | 0.0 | 1.6 | 0.00 | 0.00 | 2.87 | 95 | 1007.8 |
| 20260506183244 | 10 | 236 | 1.6 | 1.6 | 0.00 | 0.00 | 2.87 | 94 | 1007.7 |
| 20260506182733 | 10 | 206 | 0.0 | 3.2 | 0.00 | 0.00 | 2.87 | 94 | 1007.8 |
| 20260506182306 | 10 | 247 | 1.6 | 1.6 | 0.00 | 0.00 | 2.87 | 94 | 1007.8 |
| 20260506181326 | 10 | 238 | 0.0 | 1.6 | 0.00 | 0.00 | 2.87 | 94 | 1007.6 |
| 20260506180653 | 10 | 273 | 1.6 | 4.8 | 0.00 | 0.00 | 2.87 | 93 | 1007.7 |
| 20260506175123 | 10 | 220 | 0.0 | 1.6 | 0.00 | 0.00 | 2.87 | 93 | 1007.5 |
| 20260506174614 | 11 | 252 | 1.6 | 9.7 | 0.00 | 0.00 | 2.87 | 93 | 1007.2 |
| 20260506173553 | 11 | 247 | 1.6 | 4.8 | 0.00 | 0.00 | 2.87 | 94 | 1007.4 |
| 20260506173043 | 11 | 259 | 1.6 | 3.2 | 0.00 | 0.00 | 2.87 | 94 | 1007.4 |
| 20260506172533 | 11 | 199 | 1.6 | 3.2 | 0.00 | 0.00 | 2.87 | 94 | 1007.6 |
| 20260506171513 | 11 | 229 | 1.6 | 4.8 | 0.00 | 0.00 | 2.87 | 93 | 1007.2 |
| 20260506171003 | 11 | 255 | 1.6 | 4.8 | 0.00 | 0.00 | 2.87 | 93 | 1007.2 |
| 20260506170453 | 11 | 226 | 0.0 | 1.6 | 0.00 | 0.00 | 2.87 | 93 | 1007.5 |
| 20260506165943 | 11 | 278 | 1.6 | 4.8 | 0.00 | 0.00 | 2.87 | 93 | 1007.1 |
| 20260506165001 | 11 | 259 | 3.2 | 3.2 | 0.00 | 0.00 | 2.87 | 92 | 1007.1 |
| 20260506164539 | 11 | 263 | 1.6 | 4.8 | 0.00 | 0.00 | 2.87 | 92 | 1007.1 |
| 20260506164026 | 11 | 241 | 0.0 | 4.8 | 0.00 | 0.00 | 2.87 | 92 | 1007.1 |
| 20260506161901 | 12 | 224 | 0.0 | 1.6 | 0.00 | 0.00 | 2.87 | 91 | 1007.3 |
| 20260506161313 | 12 | 195 | 0.0 | 4.8 | 0.00 | 0.00 | 2.87 | 90 | 1007.2 |
| 20260506160332 | 12 | 180 | 0.0 | 0.0 | 0.00 | 0.00 | 2.87 | 91 | 1007.1 |
| 20260506155821 | 12 | 229 | 0.0 | 1.6 | 0.00 | 0.00 | 2.87 | 92 | 1007.3 |
| 20260506155314 | 12 | 232 | 0.0 | 3.2 | 0.00 | 0.00 | 2.87 | 93 | 1007.3 |
| 20260506154723 | 12 | 216 | 0.0 | 1.6 | 0.00 | 0.00 | 2.87 | 94 | 1007.4 |
| 20260506153826 | 12 | 243 | 1.6 | 1.6 | 0.00 | 0.00 | 2.87 | 94 | 1007.4 |
| 20260506153231 | 12 | 225 | 1.6 | 1.6 | 0.00 | 0.00 | 2.87 | 95 | 1007.3 |
| 20260506152646 | 12 | 247 | 1.6 | 3.2 | 0.00 | 0.00 | 2.87 | 94 | 1007.4 |
| 20260506151113 | 12 | 245 | 0.0 | 3.2 | 0.00 | 0.00 | 2.87 | 94 | 1007.2 |
| 20260506150053 | 12 | 234 | 0.0 | 3.2 | 0.00 | 0.00 | 2.87 | 94 | 1007.1 |
| 20260506145546 | 12 | 224 | 0.0 | 1.6 | 0.00 | 0.00 | 2.87 | 93 | 1007.0 |
| 20260506144013 | 12 | 251 | 0.0 | 3.2 | 0.00 | 0.00 | 2.87 | 92 | 1007.0 |
| 20260506143503 | 12 | 243 | 1.6 | 1.6 | 0.00 | 0.00 | 2.87 | 92 | 1007.1 |
| 20260506142953 | 12 | 223 | 0.0 | 1.6 | 0.00 | 0.00 | 2.87 | 92 | 1006.9 |
| 20260506141933 | 12 | 231 | 0.0 | 1.6 | 0.00 | 0.00 | 2.87 | 91 | 1007.0 |
| 20260506141423 | 13 | 236 | 0.0 | 3.2 | 0.00 | 0.00 | 2.87 | 91 | 1007.1 |
| 20260506140913 | 13 | 265 | 3.2 | 3.2 | 0.00 | 0.00 | 2.87 | 91 | 1007.2 |
| 20260506140403 | 12 | 221 | 1.6 | 1.6 | 0.00 | 0.00 | 2.87 | 95 | 1007.2 |
| 20260506135421 | 12 | 221 | 0.0 | 3.2 | 0.00 | 0.00 | 2.87 | 94 | 1007.1 |
| 20260506134833 | 12 | 225 | 0.0 | 3.2 | 0.00 | 0.00 | 2.87 | 95 | 1006.9 |
| 20260506133425 | 12 | 215 | 1.6 | 4.8 | 0.00 | 0.00 | 2.87 | 97 | 1007.0 |
| 20260506131733 | 11 | 217 | 0.0 | 1.6 | 0.00 | 0.00 | 2.87 | 99 | 1007.2 |
| 20260506131223 | 11 | 232 | 3.2 | 4.8 | 0.00 | 0.00 | 2.87 | 99 | 1007.1 |
| 20260506130203 | 11 | 209 | 0.0 | 1.6 | 0.03 | 0.00 | 2.87 | 99 | 1007.0 |
| 20260506125653 | 11 | 193 | 1.6 | 1.6 | 0.03 | 0.00 | 2.87 | 99 | 1007.2 |
| 20260506125143 | 11 | 273 | 3.2 | 3.2 | 0.03 | 0.00 | 2.87 | 99 | 1007.1 |
| 20260506124633 | 11 | 285 | 3.2 | 4.8 | 0.03 | 0.00 | 2.87 | 99 | 1006.9 |
| 20260506123102 | 11 | 219 | 0.0 | 3.2 | 0.03 | 0.00 | 2.87 | 99 | 1006.9 |
| 20260506122631 | 11 | 234 | 0.0 | 3.2 | 0.03 | 0.00 | 2.87 | 99 | 1006.9 |
| 20260506122042 | 11 | 274 | 1.6 | 3.2 | 0.03 | 0.00 | 2.87 | 99 | 1006.9 |
| 20260506121532 | 11 | 220 | 0.0 | 1.6 | 0.03 | 0.00 | 2.87 | 99 | 1006.7 |
| 20260506120512 | 11 | 220 | 0.0 | 1.6 | 0.00 | 0.00 | 2.84 | 99 | 1006.8 |
| 20260506120002 | 11 | 259 | 1.6 | 3.2 | 0.00 | 0.00 | 2.84 | 99 | 1006.6 |
| 20260506115021 | 11 | 220 | 0.0 | 1.6 | 0.00 | 0.00 | 2.84 | 99 | 1006.7 |
| 20260506114432 | 11 | 219 | 0.0 | 0.0 | 0.00 | 0.00 | 2.84 | 99 | 1006.6 |
| 20260506114000 | 11 | 200 | 0.0 | 0.0 | 0.00 | 0.00 | 2.84 | 99 | 1006.5 |
| 20260506113535 | 11 | 216 | 0.0 | 0.0 | 0.00 | 0.00 | 2.84 | 99 | 1006.7 |
| 20260506112943 | 11 | 224 | 0.0 | 1.6 | 0.00 | 0.00 | 2.84 | 99 | 1006.6 |
| 20260506111842 | 11 | 223 | 0.0 | 0.0 | 0.00 | 0.00 | 2.84 | 99 | 1006.3 |
| 20260506111333 | 11 | 98 | 3.2 | 4.8 | 0.00 | 0.00 | 2.84 | 99 | 1006.5 |
| 20260506110438 | 11 | 223 | 0.0 | 1.6 | 0.00 | 0.00 | 2.84 | 99 | 1006.4 |
| 20260506105802 | 11 | 275 | 1.6 | 1.6 | 0.00 | 0.00 | 2.84 | 99 | 1006.2 |
| 20260506105334 | 11 | 219 | 0.0 | 1.6 | 0.03 | 0.00 | 2.84 | 99 | 1006.1 |
| 20260506104742 | 11 | 224 | 0.0 | 1.6 | 0.03 | 0.00 | 2.84 | 99 | 1006.3 |
| 20260506104235 | 11 | 208 | 0.0 | 1.6 | 0.03 | 0.00 | 2.84 | 99 | 1006.2 |
| 20260506102230 | 11 | 225 | 0.0 | 1.6 | 0.13 | 0.00 | 2.84 | 99 | 1006.0 |
| 20260506101211 | 11 | 231 | 1.6 | 1.6 | 0.18 | 0.00 | 2.84 | 99 | 1005.8 |
| 20260506100112 | 10 | 240 | 0.0 | 1.6 | 0.20 | 0.00 | 2.84 | 99 | 1005.9 |
| 20260506095605 | 10 | 218 | 0.0 | 1.6 | 0.20 | 0.00 | 2.82 | 99 | 1005.8 |
| 20260506093600 | 10 | 218 | 0.0 | 0.0 | 0.25 | 0.00 | 2.79 | 99 | 1005.8 |
| 20260506092505 | 10 | 270 | 1.6 | 1.6 | 0.23 | 0.00 | 2.72 | 99 | 1005.7 |
| 20260506090422 | 10 | 258 | 0.0 | 1.6 | 0.30 | 0.00 | 2.64 | 99 | 1005.4 |
| 20260506084852 | 10 | 221 | 0.0 | 1.6 | 0.38 | 0.00 | 2.59 | 99 | 1005.6 |
| 20260506084342 | 10 | 300 | 3.2 | 3.2 | 0.41 | 0.00 | 2.57 | 99 | 1005.5 |
| 20260506083910 | 10 | 220 | 1.6 | 6.4 | 0.43 | 0.00 | 2.54 | 99 | 1005.4 |
| 20260506082812 | 10 | 249 | 0.0 | 6.4 | 0.51 | 0.00 | 2.49 | 99 | 1005.1 |
| 20260506082304 | 10 | 282 | 1.6 | 4.8 | 0.53 | 0.00 | 2.46 | 99 | 1005.2 |
| 20260506081242 | 10 | 231 | 1.6 | 3.2 | 0.56 | 0.00 | 2.39 | 99 | 1005.3 |
| 20260506080732 | 10 | 229 | 0.0 | 1.6 | 0.56 | 0.00 | 2.34 | 99 | 1005.2 |
| 20260506080222 | 10 | 224 | 0.0 | 1.6 | 0.58 | 0.00 | 2.31 | 99 | 1005.5 |
| 20260506072102 | 10 | 234 | 0.0 | 1.6 | 0.41 | 0.00 | 1.91 | 99 | 1005.0 |
| 20260506071555 | 10 | 254 | 1.6 | 1.6 | 0.36 | 0.00 | 1.85 | 99 | 1005.1 |
| 20260506071042 | 10 | 219 | 0.0 | 1.6 | 0.28 | 0.00 | 1.78 | 99 | 1005.1 |
| 20260506070531 | 10 | 232 | 0.0 | 1.6 | 0.23 | 0.00 | 1.73 | 99 | 1004.9 |
| 20260506062414 | 10 | 262 | 1.6 | 3.2 | 0.10 | 0.00 | 1.50 | 99 | 1004.6 |
| 20260506061902 | 10 | 206 | 0.0 | 3.2 | 0.10 | 0.00 | 1.50 | 99 | 1004.8 |
| 20260506061351 | 10 | 235 | 1.6 | 1.6 | 0.10 | 0.00 | 1.50 | 99 | 1004.7 |